Time;durP1;ratioP1;P1;durP2;ratioP2;P2;SDS_P1;SDS_P2;PMS_P1;PMS_P2;Temp;Humidity;BMP_temperature;BMP_pressure;BME280_temperature;BME280_humidity;BME280_pressure;Samples;Min_cycle;Max_cycle;Signal;HPM_P1;HPM_P2
2022/09/16 00:02:03;;;;;;;10.48;1.17;;;11.20;99.90;;;;;;4935224;28;209695;-68
2022/09/16 00:04:30;;;;;;;12.18;1.50;;;11.20;99.90;;;;;;4980260;28;20507;-68
2022/09/16 00:06:56;;;;;;;9.95;1.30;;;11.20;99.90;;;;;;4931531;28;209553;-68
2022/09/16 00:09:22;;;;;;;10.88;1.25;;;11.20;99.90;;;;;;4980236;28;20073;-68
2022/09/16 00:11:48;;;;;;;11.95;1.17;;;11.20;99.90;;;;;;4941906;28;142417;-68
2022/09/16 00:14:15;;;;;;;11.73;1.58;;;11.20;99.90;;;;;;4980586;28;20057;-69
2022/09/16 00:16:41;;;;;;;5.75;1.10;;;11.20;99.90;;;;;;4953966;28;213189;-67
2022/09/16 00:19:08;;;;;;;10.93;1.70;;;11.20;99.90;;;;;;4983337;28;20057;-68
2022/09/16 00:21:34;;;;;;;10.27;1.52;;;11.20;99.90;;;;;;4938285;28;205130;-68
2022/09/16 00:24:00;;;;;;;11.70;1.40;;;11.20;99.90;;;;;;4983553;28;20054;-68
2022/09/16 00:26:26;;;;;;;11.13;1.88;;;11.20;99.90;;;;;;4942340;28;212076;-70
2022/09/16 00:28:52;;;;;;;10.25;1.50;;;11.30;99.90;;;;;;4981507;28;20439;-70
2022/09/16 00:31:18;;;;;;;10.20;1.60;;;11.30;99.90;;;;;;4928155;28;207453;-69
2022/09/16 00:33:45;;;;;;;10.93;1.50;;;11.30;99.90;;;;;;4982340;28;20054;-68
2022/09/16 00:36:16;;;;;;;11.88;1.50;;;11.30;99.90;;;;;;4939057;28;208647;-68
2022/09/16 00:38:43;;;;;;;11.75;1.35;;;11.30;99.90;;;;;;4971989;28;20059;-68
2022/09/16 00:41:16;;;;;;;9.30;1.40;;;11.30;99.90;;;;;;4934743;28;211419;-69
2022/09/16 00:43:57;;;;;;;11.52;1.50;;;11.30;99.90;;;;;;4982260;28;20519;-69
2022/09/16 00:46:33;;;;;;;9.35;1.35;;;11.40;99.90;;;;;;4932405;28;206866;-70
2022/09/16 00:49:09;;;;;;;8.02;1.20;;;11.30;99.90;;;;;;4984883;28;20443;-69
2022/09/16 00:51:37;;;;;;;11.48;1.30;;;11.30;99.90;;;;;;4923422;28;206491;-69
2022/09/16 00:54:08;;;;;;;10.32;1.63;;;11.30;99.90;;;;;;4977963;28;20144;-69
2022/09/16 00:56:38;;;;;;;7.97;1.52;;;11.30;99.90;;;;;;4934310;28;210049;-69
2022/09/16 00:59:14;;;;;;;9.82;1.30;;;11.30;99.90;;;;;;4977065;28;20069;-69
2022/09/16 01:01:43;;;;;;;9.02;1.30;;;11.30;99.90;;;;;;4943528;28;215816;-69
2022/09/16 01:04:16;;;;;;;9.95;1.58;;;11.30;99.90;;;;;;4980304;28;20058;-69
2022/09/16 01:06:43;;;;;;;12.30;1.70;;;11.20;99.90;;;;;;4943637;28;208699;-69
2022/09/16 01:09:09;;;;;;;12.38;1.80;;;11.20;99.90;;;;;;4978071;28;20054;-72
2022/09/16 01:11:35;;;;;;;9.93;1.67;;;11.20;99.90;;;;;;4926981;28;207898;-71
2022/09/16 01:16:58;;;;;;;14.15;1.58;;;11.20;99.90;;;;;;4937234;28;212919;-69
2022/09/16 01:19:27;;;;;;;17.92;1.92;;;11.20;99.90;;;;;;4976626;28;20065;-70
2022/09/16 01:22:18;;;;;;;13.13;1.77;;;11.20;99.90;;;;;;4937740;28;208545;-69
2022/09/16 01:25:46;;;;;;;12.23;1.47;;;11.20;99.90;;;;;;4977295;28;20054;-67
2022/09/16 01:28:48;;;;;;;10.57;1.90;;;11.20;99.90;;;;;;4828961;29;206552;-68
2022/09/16 01:31:16;;;;;;;9.85;1.60;;;11.20;99.90;;;;;;4849201;29;55698;-67
2022/09/16 01:34:19;;;;;;;13.73;1.67;;;11.20;99.90;;;;;;4882411;29;20430;-68
2022/09/16 01:37:09;;;;;;;10.52;1.45;;;11.20;99.90;;;;;;4825456;29;210967;-68
2022/09/16 01:39:53;;;;;;;14.02;1.70;;;11.20;99.90;;;;;;4866174;29;20064;-68
2022/09/16 01:42:23;;;;;;;10.30;1.58;;;11.10;99.90;;;;;;4835433;29;206094;-69
2022/09/16 01:45:17;;;;;;;10.73;1.50;;;11.10;99.90;;;;;;4867413;29;20414;-68
2022/09/16 01:48:07;;;;;;;13.77;1.80;;;11.10;99.90;;;;;;4865290;29;206692;-68
2022/09/16 01:50:45;;;;;;;12.32;1.77;;;11.10;99.90;;;;;;4858436;29;213142;-69
2022/09/16 01:53:34;;;;;;;11.77;1.50;;;11.00;99.90;;;;;;4894636;29;20048;-69
2022/09/16 01:56:41;;;;;;;11.15;1.40;;;11.00;99.90;;;;;;4864261;29;208002;-69
2022/09/16 01:59:10;;;;;;;8.52;1.50;;;11.00;99.90;;;;;;4867763;29;20060;-68
2022/09/16 02:01:44;;;;;;;9.18;1.33;;;10.90;99.90;;;;;;4833335;29;206711;-70
2022/09/16 02:04:22;;;;;;;9.52;1.38;;;10.90;99.90;;;;;;4930654;28;20074;-69
2022/09/16 02:06:50;;;;;;;8.68;1.77;;;10.90;99.90;;;;;;4897308;28;222344;-68
2022/09/16 02:09:41;;;;;;;13.57;1.70;;;10.80;99.90;;;;;;4939747;28;20077;-69
2022/09/16 02:12:13;;;;;;;10.18;1.83;;;10.80;99.90;;;;;;4843272;29;204006;-69
2022/09/16 02:14:42;;;;;;;7.82;1.70;;;10.80;99.90;;;;;;4901532;29;20068;-69
2022/09/16 02:17:15;;;;;;;10.82;1.80;;;10.80;99.90;;;;;;4857183;29;209197;-69
2022/09/16 02:19:47;;;;;;;13.73;2.00;;;10.80;99.90;;;;;;4901994;29;20060;-68
2022/09/16 02:22:24;;;;;;;11.25;1.85;;;10.70;99.90;;;;;;4836921;29;205168;-69
2022/09/16 02:24:51;;;;;;;10.07;1.60;;;10.70;99.90;;;;;;4904782;29;20048;-69
2022/09/16 02:27:21;;;;;;;10.95;1.80;;;10.80;99.90;;;;;;4816249;29;221340;-69
2022/09/16 02:29:54;;;;;;;8.13;1.83;;;10.80;99.90;;;;;;4888736;29;20545;-69
2022/09/16 02:32:25;;;;;;;10.32;1.75;;;10.80;99.90;;;;;;4864408;29;206940;-68
2022/09/16 02:34:53;;;;;;;12.07;2.10;;;10.80;99.90;;;;;;4904811;29;20067;-69
2022/09/16 02:37:35;;;;;;;12.65;1.90;;;10.80;99.90;;;;;;4833250;29;206281;-69
2022/09/16 02:40:09;;;;;;;11.55;2.20;;;10.80;99.90;;;;;;4872035;29;155862;-69
2022/09/16 02:42:35;;;;;;;14.10;2.00;;;10.80;99.90;;;;;;4891163;29;20052;-69
2022/09/16 02:45:04;;;;;;;10.30;1.63;;;10.80;99.90;;;;;;4854170;29;209778;-69
2022/09/16 02:48:07;;;;;;;11.98;1.92;;;10.80;99.90;;;;;;4875590;29;20700;-70
2022/09/16 02:50:55;;;;;;;11.65;2.13;;;10.80;99.90;;;;;;4915537;28;210776;-70
2022/09/16 02:53:53;;;;;;;12.77;1.88;;;10.80;99.90;;;;;;4942133;28;20424;-70
2022/09/16 02:56:26;;;;;;;11.32;1.73;;;10.80;99.90;;;;;;4916510;28;211235;-69
2022/09/16 02:58:52;;;;;;;10.18;1.42;;;10.80;99.90;;;;;;4964799;28;20551;-69
2022/09/16 03:01:19;;;;;;;12.48;1.88;;;10.80;99.90;;;;;;4923612;28;208841;-68
2022/09/16 03:03:46;;;;;;;10.32;1.45;;;10.90;99.90;;;;;;4959310;28;20062;-69
2022/09/16 03:06:14;;;;;;;9.95;1.50;;;10.90;99.90;;;;;;4931040;28;162065;-68
2022/09/16 03:08:43;;;;;;;10.35;1.45;;;10.90;99.90;;;;;;4958262;28;20055;-67
2022/09/16 03:11:44;;;;;;;9.55;1.70;;;10.90;99.90;;;;;;4925336;28;219645;-67
2022/09/16 03:14:25;;;;;;;11.88;1.63;;;10.90;99.90;;;;;;4974146;28;20420;-67
2022/09/16 03:17:28;;;;;;;13.05;2.13;;;10.90;99.90;;;;;;4945379;28;209667;-67
2022/09/16 03:20:31;;;;;;;11.90;1.83;;;10.80;99.90;;;;;;4982080;28;20061;-67
2022/09/16 03:23:55;;;;;;;11.80;1.70;;;10.80;99.90;;;;;;4944975;28;184775;-67
2022/09/16 03:26:37;;;;;;;13.30;1.67;;;10.80;99.90;;;;;;4871599;29;206586;-67
2022/09/16 03:29:32;;;;;;;10.68;1.90;;;10.70;99.90;;;;;;4917057;29;21019;-67
2022/09/16 03:32:05;;;;;;;11.35;1.88;;;10.70;99.90;;;;;;4866186;29;181908;-68
2022/09/16 03:34:37;;;;;;;12.60;1.60;;;10.70;99.90;;;;;;4905052;29;20055;-67
2022/09/16 03:37:10;;;;;;;8.50;1.30;;;10.60;99.90;;;;;;4896860;28;206216;-66
2022/09/16 03:39:37;;;;;;;13.50;1.70;;;10.70;99.90;;;;;;4939189;29;20090;-67
2022/09/16 03:42:10;;;;;;;13.45;1.73;;;10.70;99.90;;;;;;4877310;29;209199;-67
2022/09/16 03:44:39;;;;;;;12.00;1.70;;;10.70;99.90;;;;;;4938117;28;20538;-67
2022/09/16 03:47:06;;;;;;;9.93;1.50;;;10.70;99.90;;;;;;4875221;29;206350;-67
2022/09/16 03:49:33;;;;;;;13.70;1.75;;;10.70;99.90;;;;;;4920287;28;20055;-67
2022/09/16 03:52:00;;;;;;;11.00;1.63;;;10.70;99.90;;;;;;4880244;29;206698;-68
2022/09/16 03:54:26;;;;;;;10.40;1.90;;;10.70;99.90;;;;;;4936314;28;20063;-67
2022/09/16 03:56:52;;;;;;;8.40;1.52;;;10.70;99.90;;;;;;4885785;29;184855;-68
2022/09/16 03:59:18;;;;;;;10.98;1.30;;;10.70;99.90;;;;;;4941947;28;20066;-68
2022/09/16 04:01:45;;;;;;;14.73;2.00;;;10.60;99.90;;;;;;4891889;28;206081;-69
2022/09/16 04:04:11;;;;;;;7.85;1.40;;;10.50;99.90;;;;;;4979980;28;20042;-69
2022/09/16 04:06:38;;;;;;;11.20;1.80;;;10.50;99.90;;;;;;4940065;28;210110;-68
2022/09/16 04:09:06;;;;;;;11.48;1.50;;;10.50;99.90;;;;;;4976223;28;20064;-68
2022/09/16 04:11:33;;;;;;;12.85;1.67;;;10.50;99.90;;;;;;4944589;28;209467;-69
2022/09/16 04:14:00;;;;;;;11.88;1.83;;;10.50;99.90;;;;;;4982396;28;20400;-69
2022/09/16 04:16:26;;;;;;;13.27;1.60;;;10.50;99.90;;;;;;4950886;28;209775;-68
2022/09/16 04:18:53;;;;;;;11.93;1.95;;;10.50;99.90;;;;;;4985458;28;20054;-68
2022/09/16 04:21:19;;;;;;;10.15;1.65;;;10.50;99.90;;;;;;4937312;28;209522;-67
2022/09/16 04:23:45;;;;;;;8.82;1.30;;;10.50;99.90;;;;;;4983841;28;20507;-68
2022/09/16 04:26:11;;;;;;;11.32;1.60;;;10.50;99.90;;;;;;4944459;28;210411;-68
2022/09/16 04:28:37;;;;;;;14.25;1.80;;;10.50;99.90;;;;;;4966495;28;20063;-68
2022/09/16 04:31:14;;;;;;;13.82;1.85;;;10.40;99.90;;;;;;4919145;28;209810;-69
2022/09/16 04:33:41;;;;;;;14.70;1.67;;;10.40;99.90;;;;;;4964412;28;20038;-68
2022/09/16 04:36:13;;;;;;;12.23;1.58;;;10.40;99.90;;;;;;4902457;28;211033;-68
2022/09/16 04:38:41;;;;;;;10.40;1.65;;;10.40;99.90;;;;;;4948108;28;20559;-68
2022/09/16 04:41:11;;;;;;;12.60;1.40;;;10.40;99.90;;;;;;4927029;28;209275;-68
2022/09/16 04:43:38;;;;;;;13.77;1.33;;;10.30;99.90;;;;;;4960936;28;20551;-68
2022/09/16 04:46:05;;;;;;;11.77;1.58;;;10.30;99.90;;;;;;4921644;28;210504;-68
2022/09/16 04:48:32;;;;;;;11.63;1.60;;;10.30;99.90;;;;;;4959733;28;20074;-67
2022/09/16 04:51:04;;;;;;;11.20;1.48;;;10.20;99.90;;;;;;4918392;28;208462;-68
2022/09/16 04:53:31;;;;;;;13.30;1.45;;;10.20;99.90;;;;;;4961156;28;20078;-68
2022/09/16 04:56:07;;;;;;;11.55;1.40;;;10.10;99.90;;;;;;4912301;28;206688;-68
2022/09/16 04:58:34;;;;;;;11.50;1.63;;;10.10;99.90;;;;;;4950672;28;20062;-68
2022/09/16 05:01:12;;;;;;;11.40;1.55;;;10.00;99.90;;;;;;4910859;28;213154;-68
2022/09/16 05:03:39;;;;;;;17.55;1.83;;;10.00;99.90;;;;;;4957855;28;20077;-68
2022/09/16 05:06:08;;;;;;;11.45;1.48;;;9.90;99.90;;;;;;4913641;28;213488;-67
2022/09/16 05:08:34;;;;;;;11.30;1.67;;;9.90;99.90;;;;;;4959975;28;20049;-68
2022/09/16 05:11:08;;;;;;;10.15;1.60;;;9.90;99.90;;;;;;4926091;28;105589;-68
2022/09/16 05:13:34;;;;;;;13.13;1.77;;;9.80;99.90;;;;;;4979338;28;20053;-68
2022/09/16 05:16:06;;;;;;;10.18;1.58;;;9.90;99.90;;;;;;4946652;28;210090;-66
2022/09/16 05:18:37;;;;;;;13.70;1.70;;;9.80;99.90;;;;;;4985184;28;20526;-67
2022/09/16 05:21:06;;;;;;;14.15;1.60;;;9.80;99.90;;;;;;4931364;28;206346;-68
2022/09/16 05:23:33;;;;;;;13.23;1.92;;;9.80;99.90;;;;;;4983142;28;20053;-67
2022/09/16 05:26:08;;;;;;;12.02;1.48;;;9.80;99.90;;;;;;4923215;28;212871;-67
2022/09/16 05:28:35;;;;;;;11.93;1.60;;;9.80;99.90;;;;;;4974245;28;20419;-67
2022/09/16 05:31:13;;;;;;;11.80;1.52;;;9.80;99.90;;;;;;4941437;28;209444;-67
2022/09/16 05:33:41;;;;;;;14.98;2.03;;;9.80;99.90;;;;;;4979892;28;22029;-68
2022/09/16 05:36:12;;;;;;;11.60;1.60;;;9.80;99.90;;;;;;4942382;28;208969;-67
2022/09/16 05:38:39;;;;;;;12.45;1.70;;;9.90;99.90;;;;;;4974699;28;20051;-70
2022/09/16 05:41:06;;;;;;;12.60;1.52;;;9.90;99.90;;;;;;4927855;28;216046;-70
2022/09/16 05:43:33;;;;;;;15.13;1.75;;;10.00;99.90;;;;;;4965022;28;20081;-70
2022/09/16 05:46:00;;;;;;;13.93;1.77;;;10.00;99.90;;;;;;4936748;28;205775;-70
2022/09/16 05:48:27;;;;;;;14.75;1.85;;;10.00;99.90;;;;;;4981672;28;20069;-69
2022/09/16 05:50:55;;;;;;;17.58;1.88;;;10.00;99.90;;;;;;4918457;28;214376;-69
2022/09/16 05:53:23;;;;;;;13.68;2.17;;;10.10;99.90;;;;;;4946646;28;20062;-69
2022/09/16 05:55:56;;;;;;;16.30;1.88;;;10.10;99.90;;;;;;4925621;28;207851;-69
2022/09/16 05:58:23;;;;;;;15.05;1.80;;;10.20;99.90;;;;;;4961123;28;20074;-69
2022/09/16 06:00:49;;;;;;;19.42;1.90;;;10.30;99.90;;;;;;4920565;28;213840;-68
2022/09/16 06:03:16;;;;;;;10.85;1.70;;;10.30;99.90;;;;;;4955167;28;20050;-68
2022/09/16 06:05:42;;;;;;;16.98;1.90;;;10.30;99.90;;;;;;4927520;28;211921;-69
2022/09/16 06:08:08;;;;;;;16.35;2.05;;;10.30;99.90;;;;;;4970270;28;20055;-67
2022/09/16 06:10:41;;;;;;;14.30;1.92;;;10.30;99.90;;;;;;4923806;28;210536;-67
2022/09/16 06:13:07;;;;;;;16.05;2.20;;;10.30;99.90;;;;;;4954527;28;20390;-68
2022/09/16 06:15:34;;;;;;;12.73;2.28;;;10.30;99.90;;;;;;4933225;28;210039;-68
2022/09/16 06:18:01;;;;;;;17.67;2.05;;;10.30;99.90;;;;;;4989294;28;20057;-67
2022/09/16 06:20:27;;;;;;;11.15;1.90;;;10.30;99.90;;;;;;4949613;28;210618;-68
2022/09/16 06:22:53;;;;;;;10.93;2.00;;;10.30;99.90;;;;;;4988059;28;20046;-68
2022/09/16 06:25:20;;;;;;;10.17;2.07;;;10.30;99.90;;;;;;4947248;28;209242;-67
2022/09/16 06:27:46;;;;;;;17.33;2.20;;;10.40;99.90;;;;;;4987722;28;20530;-68
2022/09/16 06:30:12;;;;;;;16.43;2.37;;;10.40;99.90;;;;;;4938201;28;212322;-67
2022/09/16 06:32:38;;;;;;;15.20;2.10;;;10.40;99.90;;;;;;5001382;28;20411;-68
2022/09/16 06:35:04;;;;;;;13.80;1.90;;;10.50;99.90;;;;;;4956327;28;210794;-67
2022/09/16 06:37:30;;;;;;;13.75;2.25;;;10.60;99.90;;;;;;4989515;28;20519;-67
2022/09/16 06:39:56;;;;;;;15.02;1.92;;;10.60;99.90;;;;;;4978876;28;219464;-67
2022/09/16 06:42:23;;;;;;;14.43;2.13;;;10.90;99.90;;;;;;4963212;28;130192;-67
2022/09/16 06:44:49;;;;;;;17.95;2.35;;;11.30;99.90;;;;;;4990768;28;20046;-68
2022/09/16 06:47:15;;;;;;;13.18;1.73;;;11.80;99.90;;;;;;4956140;28;208895;-67
2022/09/16 06:49:41;;;;;;;13.20;1.85;;;12.30;99.90;;;;;;4983920;28;20073;-67
2022/09/16 06:52:08;;;;;;;12.25;1.90;;;12.60;99.90;;;;;;4940744;28;212175;-67
2022/09/16 06:54:34;;;;;;;13.25;1.70;;;12.90;99.90;;;;;;4984683;28;20114;-67
2022/09/16 06:57:00;;;;;;;16.67;2.17;;;12.70;99.90;;;;;;4940853;28;209812;-67
2022/09/16 06:59:26;;;;;;;12.68;2.40;;;12.50;99.90;;;;;;4995761;28;20105;-67
2022/09/16 07:01:53;;;;;;;14.23;2.35;;;12.40;99.90;;;;;;4937759;28;212256;-67
2022/09/16 07:04:19;;;;;;;12.57;2.53;;;12.50;99.90;;;;;;4990104;28;20054;-68
2022/09/16 07:06:45;;;;;;;13.20;2.92;;;12.60;99.90;;;;;;4942860;28;209605;-67
2022/09/16 07:09:12;;;;;;;19.75;2.90;;;12.80;99.90;;;;;;4990068;28;20046;-67
2022/09/16 07:11:39;;;;;;;13.40;2.28;;;12.50;99.90;;;;;;4941571;28;213302;-67
2022/09/16 07:14:06;;;;;;;15.75;2.58;;;12.40;99.90;;;;;;4991035;28;20058;-68
2022/09/16 07:16:32;;;;;;;14.57;2.58;;;12.40;99.90;;;;;;4935538;28;207064;-67
2022/09/16 07:18:58;;;;;;;15.60;2.50;;;12.40;99.90;;;;;;4985277;28;20434;-68
2022/09/16 07:21:29;;;;;;;14.00;2.45;;;13.00;99.90;;;;;;4942867;28;209835;-67
2022/09/16 07:23:59;;;;;;;17.08;2.47;;;13.60;99.90;;;;;;4984615;28;20046;-68
2022/09/16 07:26:27;;;;;;;14.85;2.22;;;14.00;99.90;;;;;;4947241;28;209921;-67
2022/09/16 07:28:54;;;;;;;12.85;2.10;;;14.30;99.90;;;;;;4990566;28;20503;-67
2022/09/16 07:31:26;;;;;;;13.65;2.38;;;14.70;99.90;;;;;;4934510;28;212410;-67
2022/09/16 07:33:54;;;;;;;16.98;2.30;;;14.90;99.90;;;;;;4982143;28;20054;-66
2022/09/16 07:36:22;;;;;;;13.30;1.90;;;14.90;99.90;;;;;;4947931;28;209078;-67
2022/09/16 07:38:50;;;;;;;10.98;1.70;;;15.10;99.90;;;;;;4979680;28;20070;-67
2022/09/16 07:41:18;;;;;;;11.68;1.95;;;15.20;99.90;;;;;;4949748;28;215821;-67
2022/09/16 07:43:45;;;;;;;12.75;1.70;;;15.40;99.90;;;;;;4982810;28;20045;-68
2022/09/16 07:46:13;;;;;;;19.20;1.80;;;15.60;99.90;;;;;;4938927;28;209624;-67
2022/09/16 07:48:39;;;;;;;15.05;2.03;;;15.70;99.90;;;;;;4985723;28;20038;-67
2022/09/16 07:51:12;;;;;;;15.40;1.90;;;15.80;99.90;;;;;;4923012;28;209922;-65
2022/09/16 07:53:38;;;;;;;14.18;2.08;;;16.10;99.90;;;;;;4982820;28;20058;-66
2022/09/16 07:56:06;;;;;;;13.50;1.75;;;15.90;99.90;;;;;;4947174;28;208726;-66
2022/09/16 07:58:33;;;;;;;14.98;2.10;;;15.70;99.90;;;;;;4982710;28;20055;-66
2022/09/16 08:00:59;;;;;;;14.65;1.63;;;15.80;99.90;;;;;;4937241;28;209660;-66
2022/09/16 08:03:25;;;;;;;15.80;1.80;;;16.00;99.90;;;;;;4985121;28;20058;-65
2022/09/16 08:05:51;;;;;;;15.85;1.83;;;16.30;99.90;;;;;;4939387;28;211085;-65
2022/09/16 08:08:17;;;;;;;15.45;2.08;;;16.60;99.90;;;;;;4993074;28;20057;-66
2022/09/16 08:10:53;;;;;;;16.48;1.92;;;16.70;99.90;;;;;;4950481;28;209480;-66
2022/09/16 08:13:19;;;;;;;14.85;2.10;;;16.80;99.90;;;;;;4979181;28;20053;-66
2022/09/16 08:15:45;;;;;;;13.85;1.92;;;17.10;99.90;;;;;;4932227;28;208411;-66
2022/09/16 08:18:11;;;;;;;13.52;2.05;;;17.60;99.90;;;;;;4993766;28;20049;-66
2022/09/16 08:20:38;;;;;;;14.18;1.88;;;18.00;99.90;;;;;;4937655;28;209859;-66
2022/09/16 08:23:04;;;;;;;15.18;2.00;;;18.20;99.90;;;;;;4994182;28;20049;-65
2022/09/16 08:25:30;;;;;;;14.77;1.95;;;17.90;99.90;;;;;;4940222;28;209652;-65
2022/09/16 08:27:56;;;;;;;13.52;1.90;;;17.20;99.90;;;;;;4988733;28;20061;-65
2022/09/16 08:30:22;;;;;;;15.48;2.03;;;16.60;99.90;;;;;;4942804;28;211873;-64
2022/09/16 08:32:55;;;;;;;15.40;2.45;;;16.20;99.90;;;;;;4991977;28;20061;-65
2022/09/16 08:35:22;;;;;;;15.30;2.10;;;16.50;99.90;;;;;;4944999;28;209462;-66
2022/09/16 08:37:48;;;;;;;16.77;2.55;;;16.40;99.90;;;;;;4992897;28;20054;-65
2022/09/16 08:40:18;;;;;;;15.45;2.45;;;16.50;99.90;;;;;;4944149;28;209386;-65
2022/09/16 08:43:20;;;;;;;16.85;2.38;;;16.90;99.90;;;;;;4984635;28;20063;-66
2022/09/16 08:45:53;;;;;;;15.50;2.05;;;17.40;99.90;;;;;;4934594;28;209227;-65
2022/09/16 08:48:37;;;;;;;15.73;2.42;;;17.70;99.90;;;;;;4988777;28;20050;-66
2022/09/16 08:51:07;;;;;;;16.23;2.60;;;17.90;99.90;;;;;;4943372;28;209979;-66
2022/09/16 08:53:48;;;;;;;14.35;2.20;;;18.10;99.90;;;;;;4984537;28;20055;-66
2022/09/16 08:56:19;;;;;;;13.27;2.05;;;18.20;99.90;;;;;;4940396;28;212513;-65
2022/09/16 08:58:49;;;;;;;13.25;2.30;;;18.60;99.90;;;;;;4989969;28;20538;-66
2022/09/16 09:01:35;;;;;;;13.68;2.20;;;18.90;99.90;;;;;;4947964;28;210776;-66
2022/09/16 09:04:02;;;;;;;13.98;2.03;;;19.10;99.40;;;;;;4986598;28;20547;-66
2022/09/16 09:06:54;;;;;;;12.60;1.83;;;18.90;97.60;;;;;;4943446;28;209710;-66
2022/09/16 09:10:06;;;;;;;12.85;1.95;;;18.40;97.10;;;;;;4982229;28;20042;-66
2022/09/16 09:12:57;;;;;;;14.20;2.20;;;18.70;97.90;;;;;;4906873;28;206743;-65
2022/09/16 09:15:23;;;;;;;;;;;19.10;97.60;;;;;;4880116;29;205694;-65
2022/09/16 09:17:55;;;;;;;13.55;1.95;;;19.10;95.30;;;;;;4931964;28;19953;-66
2022/09/16 09:20:48;;;;;;;12.00;1.90;;;19.20;96.10;;;;;;4916964;28;152594;-67
2022/09/16 09:23:59;;;;;;;10.82;1.70;;;19.30;97.00;;;;;;4954065;28;20054;-66
2022/09/16 09:26:51;;;;;;;11.10;1.60;;;19.20;94.40;;;;;;4888185;28;206832;-66
2022/09/16 09:29:41;;;;;;;14.40;1.90;;;18.50;95.00;;;;;;4921387;29;20066;-65
2022/09/16 09:32:31;;;;;;;15.00;2.03;;;17.60;93.30;;;;;;4865811;28;206416;-66
2022/09/16 09:35:23;;;;;;;15.15;2.10;;;17.70;94.50;;;;;;4924037;28;20055;-65
2022/09/16 09:38:08;;;;;;;16.35;1.88;;;18.00;95.90;;;;;;4885301;29;154775;-66
2022/09/16 09:40:45;;;;;;;14.52;2.10;;;18.50;97.00;;;;;;4862777;29;206150;-66
2022/09/16 09:43:19;;;;;;;11.77;1.83;;;18.70;92.80;;;;;;4913982;29;20055;-66
2022/09/16 09:46:07;;;;;;;14.38;2.00;;;18.50;91.20;;;;;;4892003;28;199285;-65
2022/09/16 09:49:12;;;;;;;12.40;1.77;;;18.70;92.60;;;;;;4929771;28;20052;-66
2022/09/16 09:51:54;;;;;;;11.68;1.70;;;19.20;92.40;;;;;;4896962;28;206225;-66
2022/09/16 09:54:40;;;;;;;11.80;1.67;;;19.00;92.90;;;;;;4940424;28;20040;-66
2022/09/16 09:57:31;;;;;;;10.27;1.65;;;18.80;94.90;;;;;;4874319;28;213932;-65
2022/09/16 10:00:08;;;;;;;12.55;1.40;;;18.30;90.80;;;;;;4930822;28;211208;-65
2022/09/16 10:02:39;;;;;;;14.43;1.80;;;18.70;91.60;;;;;;4933864;28;211113;-65
2022/09/16 10:05:06;;;;;;;;;;;18.90;93.60;;;;;;4931264;28;209542;-65
2022/09/16 10:07:36;;;;;;;13.60;1.77;;;18.70;90.30;;;;;;4963866;28;19933;-66
2022/09/16 10:10:15;;;;;;;10.40;1.63;;;19.40;92.80;;;;;;4946085;28;215801;-66
2022/09/16 10:12:41;;;;;;;12.18;1.80;;;19.30;91.20;;;;;;4969654;28;20054;-66
2022/09/16 10:15:27;;;;;;;10.73;1.77;;;19.40;91.90;;;;;;4945237;28;209827;-65
2022/09/16 10:17:55;;;;;;;16.33;1.88;;;19.80;90.70;;;;;;4989652;28;20054;-66
2022/09/16 10:20:24;;;;;;;11.02;1.52;;;19.80;89.80;;;;;;4944153;28;208970;-66
2022/09/16 10:22:59;;;;;;;14.38;2.10;;;18.50;89.30;;;;;;4982796;28;20046;-65
2022/09/16 10:25:26;;;;;;;12.98;2.10;;;18.00;92.20;;;;;;4938180;28;215444;-66
2022/09/16 10:27:59;;;;;;;15.25;1.90;;;18.60;91.80;;;;;;4981168;28;20531;-66
2022/09/16 10:30:31;;;;;;;14.80;1.73;;;18.90;92.60;;;;;;4933217;28;206750;-65
2022/09/16 10:33:11;;;;;;;17.63;2.67;;;19.50;90.50;;;;;;4981236;28;20058;-66
2022/09/16 10:35:39;;;;;;;14.40;2.00;;;19.70;92.50;;;;;;4952176;28;206619;-68
2022/09/16 10:38:08;;;;;;;14.13;2.05;;;19.40;91.30;;;;;;4994031;28;20062;-65
2022/09/16 10:40:35;;;;;;;12.13;1.77;;;19.90;92.70;;;;;;4940005;28;216287;-67
2022/09/16 10:43:05;;;;;;;12.70;1.42;;;20.00;90.10;;;;;;4994765;28;20046;-67
2022/09/16 10:45:35;;;;;;;10.15;1.52;;;19.20;87.80;;;;;;4932793;28;212961;-67
2022/09/16 10:48:10;;;;;;;8.43;1.30;;;18.50;87.20;;;;;;4978692;28;20059;-66
2022/09/16 10:50:37;;;;;;;10.40;1.55;;;18.40;89.50;;;;;;4915246;28;209282;-66
2022/09/16 10:53:19;;;;;;;10.80;1.45;;;18.90;89.30;;;;;;4959825;28;20078;-66
2022/09/16 10:55:56;;;;;;;12.02;1.60;;;18.60;90.80;;;;;;4921832;28;212453;-66
2022/09/16 10:58:22;;;;;;;10.85;1.60;;;19.00;89.90;;;;;;4969532;28;20059;-65
2022/09/16 11:01:00;;;;;;;13.52;1.80;;;19.20;88.10;;;;;;4924571;28;209225;-66
2022/09/16 11:03:40;;;;;;;10.75;1.70;;;18.70;90.30;;;;;;4967659;28;20055;-67
2022/09/16 11:06:33;;;;;;;12.85;1.92;;;19.20;91.10;;;;;;4928227;28;179293;-66
2022/09/16 11:09:05;;;;;;;11.40;2.03;;;18.90;90.80;;;;;;4965106;28;20054;-67
2022/09/16 11:11:56;;;;;;;14.35;2.00;;;18.20;91.90;;;;;;4931270;28;185430;-66
2022/09/16 11:14:34;;;;;;;14.00;1.80;;;18.60;92.40;;;;;;4926116;28;20433;-66
2022/09/16 11:17:12;;;;;;;11.63;1.73;;;18.40;92.00;;;;;;4896486;28;210868;-67
2022/09/16 11:19:46;;;;;;;12.15;1.75;;;18.10;92.80;;;;;;4969592;28;20555;-67
2022/09/16 11:22:25;;;;;;;12.32;1.90;;;17.60;93.90;;;;;;4901421;28;206809;-66
2022/09/16 11:25:12;;;;;;;14.68;1.95;;;18.10;92.30;;;;;;4956980;28;20051;-67
2022/09/16 11:27:50;;;;;;;11.07;1.67;;;18.10;91.40;;;;;;4922425;28;205899;-66
2022/09/16 11:30:21;;;;;;;12.52;1.60;;;18.20;91.90;;;;;;4926200;28;206021;-66
2022/09/16 11:33:05;;;;;;;10.30;1.40;;;18.40;92.00;;;;;;4957527;28;20050;-66
2022/09/16 11:35:59;;;;;;;11.30;1.58;;;18.90;91.00;;;;;;4921026;28;206469;-67
2022/09/16 11:38:39;;;;;;;10.68;1.65;;;18.50;91.60;;;;;;4961701;28;20523;-66
2022/09/16 11:41:16;;;;;;;11.30;1.85;;;18.90;91.10;;;;;;4919657;28;223939;-65
2022/09/16 11:44:03;;;;;;;14.30;1.70;;;19.30;90.20;;;;;;4967308;28;20054;-66
2022/09/16 11:46:54;;;;;;;15.85;2.10;;;19.60;90.60;;;;;;4922787;28;206670;-66
2022/09/16 11:49:41;;;;;;;11.20;2.00;;;19.70;90.00;;;;;;4963598;28;20050;-66
2022/09/16 11:52:26;;;;;;;13.35;1.85;;;19.90;89.80;;;;;;4927912;28;206027;-67
2022/09/16 11:55:05;;;;;;;13.50;1.90;;;20.10;90.10;;;;;;4986991;28;20051;-67
2022/09/16 11:57:37;;;;;;;12.48;1.88;;;18.80;93.20;;;;;;4942263;28;79132;-69
2022/09/16 12:00:11;;;;;;;13.25;1.98;;;16.30;99.00;;;;;;4939243;28;215505;-68
2022/09/16 12:02:59;;;;;;;13.60;1.85;;;15.60;99.90;;;;;;4969325;28;20508;-67
2022/09/16 12:05:31;;;;;;;12.63;1.95;;;15.20;99.90;;;;;;4938801;28;214031;-67
2022/09/16 12:08:34;;;;;;;13.88;1.90;;;15.60;99.90;;;;;;4988360;28;20073;-66
2022/09/16 12:11:35;;;;;;;12.15;1.60;;;16.60;99.90;;;;;;4949541;28;209196;-66
2022/09/16 12:14:04;;;;;;;11.13;1.70;;;17.70;99.60;;;;;;4985209;28;20046;-66
2022/09/16 12:16:59;;;;;;;12.27;1.63;;;18.10;97.50;;;;;;4946175;28;208872;-65
2022/09/16 12:19:35;;;;;;;13.18;2.15;;;18.20;96.40;;;;;;4987457;28;20050;-67
2022/09/16 12:22:24;;;;;;;11.90;1.88;;;18.30;95.00;;;;;;4936412;28;216055;-66
2022/09/16 12:25:05;;;;;;;11.10;1.80;;;18.50;94.50;;;;;;4979967;28;20389;-66
2022/09/16 12:27:40;;;;;;;14.07;2.20;;;18.30;95.00;;;;;;4930104;28;204515;-64
2022/09/16 12:30:14;;;;;;;17.13;2.67;;;18.50;93.00;;;;;;4939805;28;210099;-67
2022/09/16 12:33:05;;;;;;;17.98;2.35;;;18.40;92.90;;;;;;4972993;28;20057;-66
2022/09/16 12:35:45;;;;;;;13.73;2.20;;;18.40;92.30;;;;;;4943708;28;210111;-66
2022/09/16 12:38:16;;;;;;;14.40;2.30;;;17.90;93.60;;;;;;5003522;28;20045;-69
2022/09/16 12:40:59;;;;;;;;;;;17.30;96.50;;;;;;4945175;28;209224;-66
2022/09/16 12:43:38;;;;;;;16.65;2.47;;;16.50;97.80;;;;;;4979875;28;19918;-64
2022/09/16 12:46:13;;;;;;;20.17;2.92;;;16.20;97.60;;;;;;4930989;28;206667;-65
2022/09/16 12:49:19;;;;;;;15.23;2.20;;;16.40;97.70;;;;;;4983379;28;20065;-65
2022/09/16 12:52:17;;;;;;;17.42;2.70;;;16.90;97.50;;;;;;4890391;28;206376;-63
2022/09/16 12:54:46;;;;;;;14.13;2.28;;;17.20;97.00;;;;;;4942551;28;20051;-65
2022/09/16 12:57:46;;;;;;;20.23;2.88;;;17.40;96.90;;;;;;4887950;28;206478;-65
2022/09/16 13:00:21;;;;;;;17.15;2.40;;;17.30;96.50;;;;;;4856922;29;207030;-65
2022/09/16 13:03:03;;;;;;;14.93;2.60;;;17.60;96.50;;;;;;4892890;29;20502;-63
2022/09/16 13:05:32;;;;;;;19.35;2.97;;;17.60;94.90;;;;;;4858449;29;208047;-65
2022/09/16 13:08:04;;;;;;;19.73;3.10;;;17.50;94.00;;;;;;4891349;29;20430;-66
2022/09/16 13:10:37;;;;;;;16.92;2.67;;;17.20;94.20;;;;;;4861472;29;206565;-65
2022/09/16 13:13:04;;;;;;;13.25;2.65;;;17.40;95.20;;;;;;4892928;29;20056;-67